Time;durP1;ratioP1;P1;durP2;ratioP2;P2;SDS_P1;SDS_P2;PMS_P1;PMS_P2;Temp;Humidity;BMP_temperature;BMP_pressure;BME280_temperature;BME280_humidity;BME280_pressure;Samples;Min_cycle;Max_cycle;Signal;HPM_P1;HPM_P2
2021/11/01 00:00:35;;;;;;;3.08;2.70;;;;;;;15.18;50.94;94239.41;4974842;28;20049;-74
2021/11/01 00:03:01;;;;;;;7.20;3.10;;;;;;;15.20;50.62;94242.50;4989861;28;20361;-74
2021/11/01 00:05:26;;;;;;;3.25;2.95;;;;;;;15.21;50.66;94244.84;4975139;28;20033;-74
2021/11/01 00:07:53;;;;;;;3.20;2.90;;;;;;;15.12;51.12;94236.25;5000913;28;20026;-74
2021/11/01 00:10:19;;;;;;;3.85;3.30;;;;;;;15.15;50.71;94238.25;5000705;28;20050;-74
2021/11/01 00:12:44;;;;;;;3.17;2.80;;;;;;;15.14;50.88;94233.22;5009239;28;20078;-74
2021/11/01 00:15:10;;;;;;;2.80;2.40;;;;;;;14.73;52.04;94246.19;4994570;28;20042;-75
2021/11/01 00:17:37;;;;;;;4.03;2.55;;;;;;;15.05;51.08;94230.78;4994275;28;20062;-74
2021/11/01 00:20:05;;;;;;;3.20;2.90;;;;;;;15.09;51.34;94227.00;4986008;28;20023;-75
2021/11/01 00:22:31;;;;;;;3.00;2.78;;;;;;;15.13;50.66;94232.44;4961886;28;20050;-74
2021/11/01 00:24:57;;;;;;;3.35;3.03;;;;;;;15.09;50.63;94220.88;4994036;28;20027;-74
2021/11/01 00:27:22;;;;;;;3.22;2.92;;;;;;;15.05;50.65;94217.38;4994273;28;20025;-75
2021/11/01 00:29:48;;;;;;;2.75;2.55;;;;;;;15.05;51.03;94220.06;4993111;28;20027;-75
2021/11/01 00:32:13;;;;;;;3.85;2.70;;;;;;;15.01;51.03;94209.28;4993367;28;20369;-75
2021/11/01 00:34:41;;;;;;;4.53;3.08;;;;;;;15.06;51.11;94213.56;4991424;28;20038;-75
2021/11/01 00:37:07;;;;;;;3.05;2.85;;;;;;;15.03;50.91;94207.00;4976901;28;20027;-74
2021/11/01 00:39:32;;;;;;;5.03;3.00;;;;;;;14.97;51.01;94197.72;5000536;28;20395;-74
2021/11/01 00:41:57;;;;;;;3.35;3.05;;;;;;;15.03;50.77;94209.69;4993629;28;20018;-74
2021/11/01 00:44:23;;;;;;;3.53;3.22;;;;;;;14.97;51.08;94200.41;4992407;28;20100;-75
2021/11/01 00:46:48;;;;;;;3.72;3.00;;;;;;;14.99;51.12;94200.81;4993776;28;20025;-73
2021/11/01 00:49:14;;;;;;;3.58;2.83;;;;;;;15.00;50.84;94201.59;4993508;28;20026;-74
2021/11/01 00:51:43;;;;;;;2.90;2.65;;;;;;;14.89;51.06;94193.34;4969286;28;20060;-75
2021/11/01 00:54:09;;;;;;;3.38;3.08;;;;;;;14.98;51.22;94201.94;4990651;28;20037;-74
2021/11/01 00:56:38;;;;;;;2.47;2.28;;;;;;;14.97;51.10;94195.03;4993755;28;20022;-74
2021/11/01 00:59:04;;;;;;;4.35;2.92;;;;;;;15.03;51.46;94201.66;4994386;28;20031;-74
2021/11/01 01:01:32;;;;;;;2.88;2.40;;;;;;;15.01;51.17;94185.19;4993450;28;20034;-75
2021/11/01 01:03:58;;;;;;;3.33;2.50;;;;;;;15.05;51.31;94186.03;5008068;28;20510;-74
2021/11/01 01:06:24;;;;;;;4.25;2.65;;;;;;;15.01;51.15;94184.41;4990591;28;20417;-75
2021/11/01 01:08:49;;;;;;;4.40;2.80;;;;;;;14.98;51.27;94177.06;4976101;28;20073;-74
2021/11/01 01:11:15;;;;;;;3.85;2.72;;;;;;;15.07;50.93;94182.97;4972033;28;20069;-74
2021/11/01 01:13:41;;;;;;;2.53;2.33;;;;;;;15.03;50.94;94180.22;4973523;28;20543;-74
2021/11/01 01:18:52;;;;;;;2.78;2.58;;;;;;;14.93;50.93;94172.00;4974065;28;20042;-74
2021/11/01 01:24:01;;;;;;;3.30;2.97;;;;;;;14.86;50.84;94167.28;4973829;28;20034;-73
2021/11/01 01:26:27;;;;;;;2.63;2.15;;;;;;;14.85;51.50;94163.06;4973725;28;20030;-74
2021/11/01 01:28:53;;;;;;;2.78;2.58;;;;;;;14.88;51.20;94177.66;4988567;28;20118;-74
2021/11/01 01:31:19;;;;;;;3.72;2.55;;;;;;;14.87;51.26;94182.22;4972926;28;20023;-75
2021/11/01 01:33:44;;;;;;;2.60;2.40;;;;;;;14.56;51.05;94134.97;4973120;28;20033;-74
2021/11/01 01:36:10;;;;;;;3.45;2.45;;;;;;;14.84;51.09;94174.88;4961638;28;20031;-74
2021/11/01 01:38:35;;;;;;;2.40;2.20;;;;;;;14.63;51.43;94171.81;4973960;28;20022;-74
2021/11/01 01:41:15;;;;;;;4.22;2.35;;;;;;;14.69;51.83;94181.09;4972811;28;20023;-74
2021/11/01 01:43:49;;;;;;;2.75;2.55;;;;;;;14.79;51.63;94185.88;4973102;28;20038;-75
2021/11/01 01:46:16;;;;;;;2.42;2.22;;;;;;;14.75;51.20;94187.75;4973051;28;20050;-73
2021/11/01 01:48:41;;;;;;;2.88;2.67;;;;;;;14.76;51.44;94186.59;4973054;28;20584;-74
2021/11/01 01:51:08;;;;;;;3.40;3.10;;;;;;;14.76;51.64;94170.53;4989849;28;20028;-74
2021/11/01 01:53:34;;;;;;;3.47;2.72;;;;;;;14.79;51.41;94169.81;4981072;28;20022;-74
2021/11/01 01:56:00;;;;;;;3.20;2.92;;;;;;;14.64;51.31;94168.00;4984112;28;20026;-73
2021/11/01 01:58:29;;;;;;;2.60;2.40;;;;;;;14.58;51.99;94175.53;5007308;28;20439;-74
2021/11/01 02:01:12;;;;;;;2.60;2.28;;;;;;;14.63;51.49;94169.91;4974436;28;20026;-74
2021/11/01 02:03:39;;;;;;;2.55;2.35;;;;;;;14.64;51.60;94165.31;4991957;28;20603;-75
2021/11/01 02:06:29;;;;;;;3.35;2.45;;;;;;;14.71;51.52;94165.47;4988783;28;20027;-73
2021/11/01 02:09:00;;;;;;;2.40;2.20;;;;;;;14.57;51.65;94163.28;4981227;28;20029;-74
2021/11/01 02:11:35;;;;;;;3.83;2.40;;;;;;;14.53;52.14;94157.09;4982096;28;20026;-74
2021/11/01 02:14:03;;;;;;;2.53;2.33;;;;;;;14.32;52.79;94165.44;4991711;28;20030;-74
2021/11/01 02:16:32;;;;;;;2.53;2.30;;;;;;;14.55;52.22;94162.88;4991929;28;20022;-74
2021/11/01 02:18:59;;;;;;;3.10;2.60;;;;;;;14.59;51.70;94163.72;4992212;28;20035;-74
2021/11/01 02:21:53;;;;;;;2.45;2.25;;;;;;;14.55;51.55;94163.66;4989307;28;20037;-73
2021/11/01 02:24:57;;;;;;;2.67;2.47;;;;;;;14.43;52.00;94166.41;4971364;28;20062;-74
2021/11/01 02:27:26;;;;;;;2.63;2.42;;;;;;;14.34;51.89;94152.50;4950266;28;20031;-74
2021/11/01 02:29:52;;;;;;;2.92;2.70;;;;;;;14.40;52.13;94159.13;4968719;28;20039;-74
2021/11/01 02:32:19;;;;;;;3.03;2.63;;;;;;;14.30;52.09;94139.03;4971975;28;20030;-74
2021/11/01 02:34:45;;;;;;;2.90;2.67;;;;;;;14.39;51.73;94162.91;4972120;28;20027;-74
2021/11/01 02:37:11;;;;;;;2.60;2.40;;;;;;;14.35;52.05;94148.69;4980351;28;20031;-73
2021/11/01 02:39:55;;;;;;;2.70;2.50;;;;;;;14.36;52.08;94150.22;4981767;28;20046;-74
2021/11/01 02:42:23;;;;;;;4.03;2.55;;;;;;;14.35;52.24;94145.25;4989968;28;20034;-74
2021/11/01 02:44:50;;;;;;;3.17;2.42;;;;;;;14.39;51.88;94146.88;4991556;28;20030;-74
2021/11/01 02:47:15;;;;;;;2.08;1.90;;;;;;;14.37;52.13;94138.41;4991501;28;20088;-74
2021/11/01 02:49:41;;;;;;;2.92;2.17;;;;;;;14.35;51.84;94135.31;4991534;28;20121;-75
2021/11/01 02:52:06;;;;;;;4.93;2.13;;;;;;;14.11;52.15;94131.00;4979284;28;20034;-74
2021/11/01 02:54:32;;;;;;;2.45;2.25;;;;;;;14.05;52.27;94133.16;4969756;28;20479;-74
2021/11/01 02:56:59;;;;;;;1.88;1.77;;;;;;;14.15;52.15;94125.72;4991505;28;20027;-74
2021/11/01 02:59:25;;;;;;;3.05;2.45;;;;;;;14.24;51.90;94137.78;4991425;28;20018;-73
2021/11/01 03:01:51;;;;;;;4.97;2.20;;;;;;;14.31;51.90;94137.13;4990875;28;20037;-74
2021/11/01 03:04:17;;;;;;;2.40;2.20;;;;;;;14.36;51.55;94128.06;4991010;28;20149;-74
2021/11/01 03:06:42;;;;;;;2.05;1.90;;;;;;;14.39;51.20;94128.13;4970531;28;20677;-75
2021/11/01 03:09:08;;;;;;;2.10;2.00;;;;;;;14.29;51.43;94104.63;4979291;28;20022;-75
2021/11/01 03:11:34;;;;;;;2.08;1.90;;;;;;;14.43;50.96;94131.63;4983516;28;20026;-74
2021/11/01 03:14:00;;;;;;;2.58;2.38;;;;;;;14.37;51.35;94111.66;5005975;28;20070;-74
2021/11/01 03:16:27;;;;;;;2.38;2.17;;;;;;;14.42;50.92;94114.03;4989848;28;20030;-73
2021/11/01 03:19:00;;;;;;;1.73;1.63;;;;;;;14.42;50.66;94108.69;5006791;28;20026;-73
2021/11/01 03:21:28;;;;;;;1.95;1.85;;;;;;;14.41;50.71;94107.16;4980692;28;20030;-74
2021/11/01 03:23:54;;;;;;;2.85;1.95;;;;;;;14.39;50.59;94103.28;4979795;28;20440;-74
2021/11/01 03:26:23;;;;;;;4.00;2.28;;;;;;;14.35;50.77;94103.22;4997466;28;20034;-81
2021/11/01 03:28:55;;;;;;;2.25;2.05;;;;;;;14.37;50.33;94108.97;4990239;28;20022;-72
2021/11/01 03:31:23;;;;;;;2.67;2.00;;;;;;;14.37;50.55;94103.63;4990367;28;20062;-74
2021/11/01 03:33:49;;;;;;;2.28;2.17;;;;;;;14.33;50.40;94100.13;4990470;28;20399;-72
2021/11/01 03:36:15;;;;;;;2.35;2.10;;;;;;;14.24;50.22;94086.97;4978299;28;20046;-74
2021/11/01 03:38:42;;;;;;;2.72;2.35;;;;;;;14.24;50.25;94086.19;4963188;28;20469;-75
2021/11/01 03:41:10;;;;;;;2.10;2.00;;;;;;;14.21;50.29;94089.56;4967630;28;20113;-73
2021/11/01 03:44:03;;;;;;;2.15;2.00;;;;;;;14.17;50.67;94096.72;4990566;28;20069;-73
2021/11/01 03:46:50;;;;;;;2.78;2.50;;;;;;;14.19;50.62;94095.25;4990668;28;20376;-73
2021/11/01 03:49:15;;;;;;;1.92;1.83;;;;;;;14.10;50.53;94093.91;4990449;28;20026;-74
2021/11/01 03:54:08;;;;;;;3.30;2.47;;;;;;;14.04;50.55;94077.38;4978024;28;20679;-73
2021/11/01 03:56:36;;;;;;;2.28;2.05;;;;;;;13.97;50.64;94070.00;4980337;28;20062;-73
2021/11/01 03:59:02;;;;;;;4.47;2.17;;;;;;;13.91;50.63;94059.91;4990465;28;20033;-73
2021/11/01 04:01:28;;;;;;;2.88;2.17;;;;;;;13.86;51.00;94066.31;4988775;28;20018;-76
2021/11/01 04:03:53;;;;;;;2.15;1.95;;;;;;;13.94;50.65;94072.59;4990095;28;20503;-77
2021/11/01 04:06:21;;;;;;;2.17;2.00;;;;;;;13.89;50.80;94070.19;4981497;28;20027;-73
2021/11/01 04:08:47;;;;;;;2.33;2.10;;;;;;;13.84;51.05;94073.91;4983084;28;20058;-75
2021/11/01 04:11:12;;;;;;;2.22;1.98;;;;;;;13.83;50.91;94076.94;4976288;28;20102;-74
2021/11/01 04:13:38;;;;;;;2.33;2.20;;;;;;;13.83;50.90;94060.91;4971731;28;20030;-74
2021/11/01 04:16:13;;;;;;;2.10;1.95;;;;;;;13.82;50.49;94070.81;4970330;28;20492;-75
2021/11/01 04:21:22;;;;;;;2.45;2.25;;;;;;;13.91;50.79;94076.72;4970508;28;20035;-73
2021/11/01 04:23:48;;;;;;;1.75;1.65;;;;;;;13.94;50.42;94072.59;4979244;28;20042;-73
2021/11/01 04:26:18;;;;;;;2.50;1.90;;;;;;;13.95;50.25;94074.13;4982560;28;20027;-74
2021/11/01 04:28:44;;;;;;;2.30;2.10;;;;;;;14.01;50.43;94084.19;4989492;28;20161;-73
2021/11/01 04:31:13;;;;;;;2.13;2.03;;;;;;;13.90;50.23;94079.75;4990096;28;20119;-73
2021/11/01 04:33:42;;;;;;;2.15;1.95;;;;;;;13.86;50.01;94081.56;4990174;28;20039;-73
2021/11/01 04:36:07;;;;;;;2.42;2.10;;;;;;;13.84;50.48;94076.59;4997619;28;20102;-75
2021/11/01 04:54:32;;;;;;;2.28;2.08;;;;;;;13.72;50.46;94080.16;4972573;28;20114;-73
2021/11/01 04:56:58;;;;;;;2.40;2.20;;;;;;;13.75;50.16;94084.78;4978323;28;20027;-73
2021/11/01 04:59:23;;;;;;;2.40;2.20;;;;;;;13.76;49.98;94083.66;4974285;28;20023;-73
2021/11/01 05:01:52;;;;;;;2.97;2.42;;;;;;;13.77;50.39;94092.47;4973684;28;20026;-75
2021/11/01 05:04:22;;;;;;;2.70;2.50;;;;;;;13.74;50.17;94088.59;4972475;28;20023;-76
2021/11/01 05:06:59;;;;;;;5.90;2.58;;;;;;;13.65;50.41;94084.56;4975951;28;20161;-75
2021/11/01 05:09:31;;;;;;;4.60;2.72;;;;;;;13.56;50.63;94084.75;4986405;28;20029;-75
2021/11/01 05:12:17;;;;;;;2.75;2.53;;;;;;;13.50;50.29;94073.56;4977851;28;20503;-74
2021/11/01 05:14:55;;;;;;;3.50;2.17;;;;;;;13.56;50.58;94098.09;4973251;28;20026;-76
2021/11/01 05:25:32;;;;;;;3.42;2.70;;;;;;;13.40;51.31;94095.44;4958300;28;20046;-73
2021/11/01 05:33:17;;;;;;;2.92;2.42;;;;;;;13.42;51.10;94098.56;4992570;28;20083;-75
2021/11/01 05:35:43;;;;;;;2.97;2.50;;;;;;;13.40;51.20;94097.34;5008102;28;20023;-76
2021/11/01 05:38:09;;;;;;;2.80;2.60;;;;;;;13.43;51.22;94100.13;4974332;28;20034;-76
2021/11/01 05:40:35;;;;;;;3.25;2.78;;;;;;;13.58;51.07;94116.47;4966628;28;20037;-74
2021/11/01 05:43:02;;;;;;;4.00;2.72;;;;;;;13.62;50.84;94112.75;4972560;28;20042;-74
2021/11/01 05:45:28;;;;;;;2.33;2.13;;;;;;;13.66;50.63;94118.94;4952966;29;20489;-74
2021/11/01 05:48:03;;;;;;;2.53;2.20;;;;;;;13.71;50.68;94112.56;4953774;28;20027;-74
2021/11/01 05:50:33;;;;;;;5.20;2.50;;;;;;;13.89;50.52;94116.41;4953031;28;20458;-74
2021/11/01 05:53:00;;;;;;;2.60;2.40;;;;;;;14.00;50.32;94125.41;4979420;28;20498;-74
2021/11/01 06:15:55;;;;;;;3.78;2.58;;;;;;;15.45;47.20;94146.50;4973240;28;20057;-74
2021/11/01 06:18:23;;;;;;;5.45;2.20;;;;;;;15.53;47.00;94140.88;4972848;28;20126;-74
2021/11/01 06:20:48;;;;;;;2.72;2.53;;;;;;;15.69;46.46;94130.06;4972371;28;20050;-73
2021/11/01 06:23:14;;;;;;;2.33;2.08;;;;;;;15.89;46.17;94144.13;4962443;28;20023;-74
2021/11/01 06:25:40;;;;;;;2.58;2.38;;;;;;;16.00;45.89;94134.31;4981687;28;20477;-74
2021/11/01 06:28:09;;;;;;;3.17;2.88;;;;;;;16.16;45.94;94141.44;4988634;28;20049;-74
2021/11/01 06:30:42;;;;;;;2.08;1.92;;;;;;;13.53;50.32;94171.72;5006629;28;20018;-73
2021/11/01 08:29:52;;;;;;;5.10;4.60;;;;;;;17.80;50.17;94326.06;4993709;28;20041;-69
2021/11/01 09:06:51;;;;;;;5.07;4.55;;;;;;;15.26;56.23;94367.03;4996232;28;20102;-87
2021/11/01 09:12:37;;;;;;;5.65;4.88;;;;;;;16.68;53.38;94366.09;4957361;28;20070;-85
2021/11/01 09:19:58;;;;;;;5.03;4.40;;;;;;;15.55;56.21;94387.13;4957336;28;20023;-88
2021/11/01 09:25:57;;;;;;;5.07;4.57;;;;;;;15.69;55.52;94387.44;4964326;28;20134;-86
2021/11/01 09:28:08;;;;;;;6.90;4.40;;;;;;;15.00;57.15;94392.50;4946687;29;20074;-82
2021/11/01 09:41:15;;;;;;;5.18;4.70;;;;;;;15.30;55.59;94413.41;4984319;28;20084;-83
2021/11/01 09:43:51;;;;;;;4.40;4.05;;;;;;;15.35;55.92;94405.09;4982345;28;20103;-86
2021/11/01 09:46:19;;;;;;;4.72;4.20;;;;;;;15.40;56.00;94412.84;4975883;28;20054;-83
2021/11/01 09:48:45;;;;;;;5.10;4.63;;;;;;;15.62;55.35;94389.94;4990677;28;20033;-88
2021/11/01 09:51:11;;;;;;;4.75;4.35;;;;;;;15.39;56.02;94411.31;4974033;28;20027;-82
2021/11/01 09:54:23;;;;;;;6.07;3.80;;;;;;;14.71;58.39;94425.13;4974838;28;20118;-82
2021/11/01 09:59:22;;;;;;;4.60;4.13;;;;;;;14.65;58.92;94397.84;4975844;28;20122;-82
2021/11/01 10:01:51;;;;;;;5.00;4.32;;;;;;;14.53;59.53;94411.31;4975035;28;20476;-82
2021/11/01 10:04:26;;;;;;;5.63;5.05;;;;;;;15.34;57.86;94422.31;4975389;28;20573;-81
2021/11/01 10:07:31;;;;;;;5.50;5.00;;;;;;;15.30;57.88;94408.03;4974392;28;20030;-81
2021/11/01 10:09:53;;;;;;;8.50;5.13;;;;;;;15.81;56.46;94421.34;4970400;28;20051;-83
2021/11/01 10:12:27;;;;;;;5.38;4.88;;;;;;;15.57;57.44;94423.19;4975876;28;20030;-81
2021/11/01 10:14:57;;;;;;;6.07;5.47;;;;;;;15.20;58.91;94425.47;4974715;28;20033;-80
2021/11/01 10:17:35;;;;;;;11.02;6.57;;;;;;;15.05;60.54;94429.75;4974365;28;20109;-78
2021/11/01 10:20:18;;;;;;;8.70;6.70;;;;;;;15.32;59.35;94433.38;4973062;28;20106;-78
2021/11/01 10:22:44;;;;;;;11.02;8.27;;;;;;;15.59;59.81;94420.13;4974289;28;20027;-81
2021/11/01 10:25:15;;;;;;;10.48;8.23;;;;;;;16.13;59.84;94438.06;4978806;28;20033;-78
2021/11/01 10:27:41;;;;;;;8.45;7.65;;;;;;;16.28;59.61;94433.72;4981161;28;20038;-80
2021/11/01 10:30:07;;;;;;;6.47;5.88;;;;;;;15.11;60.38;94430.25;4993884;28;20034;-78
2021/11/01 10:32:43;;;;;;;9.23;6.45;;;;;;;14.63;61.05;94431.41;4994072;28;20022;-79
2021/11/01 10:35:19;;;;;;;10.02;5.80;;;;;;;14.42;62.60;94429.75;4993811;28;20030;-77
2021/11/01 10:38:21;;;;;;;7.95;7.22;;;;;;;14.85;62.68;94430.03;4992644;28;20030;-80
2021/11/01 11:14:43;;;;;;;4.97;4.30;;;;;;;13.98;63.88;94408.41;4993105;28;20044;-79
2021/11/01 11:50:28;;;;;;;5.53;3.10;;;;;;;13.68;63.35;94377.84;4953702;28;20065;-79
2021/11/01 11:52:54;;;;;;;5.97;3.88;;;;;;;13.88;63.37;94368.03;4956338;28;20763;-80
2021/11/01 11:55:28;;;;;;;4.85;3.30;;;;;;;13.81;62.69;94359.81;4981085;28;20030;-79
2021/11/01 11:58:00;;;;;;;4.63;3.20;;;;;;;13.86;63.86;94376.38;4988588;28;20026;-79
2021/11/01 12:00:36;;;;;;;4.78;3.55;;;;;;;13.72;63.73;94373.38;4973322;28;20034;-83
2021/11/01 12:03:17;;;;;;;4.90;2.75;;;;;;;13.74;64.59;94371.13;4973469;28;20026;-74
2021/11/01 12:06:01;;;;;;;5.20;3.70;;;;;;;14.51;63.22;94368.06;4970721;28;20019;-75
2021/11/01 12:08:33;;;;;;;4.45;3.70;;;;;;;15.11;63.14;94362.50;4965146;28;20155;-75
2021/11/01 12:14:12;;;;;;;10.57;5.45;;;;;;;15.54;61.65;94364.91;4974985;28;20049;-72
2021/11/01 12:19:18;;;;;;;4.65;4.10;;;;;;;15.16;59.85;94359.56;4990675;28;20033;-72
2021/11/01 12:21:47;;;;;;;13.60;4.47;;;;;;;15.38;61.29;94340.09;4989976;28;20026;-74
2021/11/01 12:24:21;;;;;;;7.90;4.18;;;;;;;15.60;60.15;94350.06;4975494;28;20098;-76
2021/11/01 12:26:47;;;;;;;4.30;3.10;;;;;;;14.11;60.88;94352.94;4972924;28;20037;-72
2021/11/01 12:29:15;;;;;;;3.08;2.70;;;;;;;14.37;60.44;94357.00;4971190;28;20384;-73
2021/11/01 12:31:41;;;;;;;5.60;3.05;;;;;;;14.66;61.31;94353.91;4971097;28;20519;-82
2021/11/01 12:36:51;;;;;;;5.50;4.05;;;;;;;14.81;60.80;94357.66;4972324;28;20029;-84
2021/11/01 12:39:28;;;;;;;6.13;4.60;;;;;;;14.72;59.92;94343.69;4970253;28;20019;-74
2021/11/01 12:58:06;;;;;;;6.70;5.80;;;;;;;15.87;56.67;94339.50;4987012;28;20049;-76
2021/11/01 13:00:39;;;;;;;5.38;4.65;;;;;;;16.22;60.17;94341.22;4990274;28;20571;-73
2021/11/01 13:03:18;;;;;;;9.48;7.53;;;;;;;16.33;60.33;94331.44;4994669;28;20038;-73
2021/11/01 13:05:57;;;;;;;6.18;5.63;;;;;;;16.42;60.42;94336.53;4993304;28;20030;-73
2021/11/01 13:08:28;;;;;;;7.70;5.80;;;;;;;16.54;59.86;94331.78;4990989;28;20109;-76
2021/11/01 13:11:14;;;;;;;6.45;5.75;;;;;;;15.95;57.37;94340.38;4979763;28;20092;-75
2021/11/01 13:13:48;;;;;;;7.60;6.38;;;;;;;15.98;58.18;94335.09;4974931;28;20034;-73
2021/11/01 13:19:05;;;;;;;7.05;6.35;;;;;;;16.06;58.28;94334.06;4974247;28;20038;-74
2021/11/01 13:21:42;;;;;;;7.22;5.85;;;;;;;15.90;58.05;94338.00;4973552;28;20023;-74
2021/11/01 13:24:10;;;;;;;9.80;8.75;;;;;;;16.29;60.95;94330.59;4971411;28;20027;-76
2021/11/01 13:35:13;;;;;;;7.65;6.95;;;;;;;15.90;61.90;94317.31;4973475;28;20142;-78
2021/11/01 13:37:41;;;;;;;8.43;7.28;;;;;;;16.07;60.22;94316.06;4973770;28;20027;-70
2021/11/01 13:40:09;;;;;;;5.22;4.72;;;;;;;15.46;58.33;94315.00;4972989;28;20491;-73
2021/11/01 13:42:36;;;;;;;8.27;5.53;;;;;;;15.32;60.80;94325.44;4982666;28;20110;-72
2021/11/01 13:45:11;;;;;;;5.80;4.68;;;;;;;14.80;60.07;94310.59;4989397;28;20100;-75
2021/11/01 13:47:41;;;;;;;4.70;4.30;;;;;;;14.30;62.97;94323.63;4993479;28;20101;-74
2021/11/01 13:50:07;;;;;;;5.20;4.70;;;;;;;14.38;62.01;94316.50;4992376;28;20558;-72
2021/11/01 13:52:42;;;;;;;7.65;6.95;;;;;;;14.86;62.48;94317.22;4991945;28;20034;-73
2021/11/01 13:58:12;;;;;;;8.15;5.93;;;;;;;14.51;61.33;94327.94;4989892;28;20037;-74
2021/11/01 14:11:37;;;;;;;5.22;4.72;;;;;;;13.76;64.31;94318.84;4964384;28;20034;-83
2021/11/01 14:14:14;;;;;;;5.55;4.03;;;;;;;13.17;66.73;94306.22;4985296;28;20027;-78
2021/11/01 14:19:36;;;;;;;5.50;5.00;;;;;;;13.05;66.39;94318.81;4992622;28;20106;-74
2021/11/01 15:19:30;;;;;;;8.15;1.52;;;;;;;12.12;66.16;94321.41;4971477;28;20503;-72
2021/11/01 15:25:19;;;;;;;2.33;1.52;;;;;;;11.71;66.60;94317.78;4915200;29;20096;-72
2021/11/01 15:28:03;;;;;;;1.63;1.25;;;;;;;11.16;69.35;94316.31;4911830;29;20038;-72
2021/11/01 16:18:44;;;;;;;3.97;3.20;;;;;;;11.48;66.22;94304.09;4970985;28;20101;-70
2021/11/01 16:21:10;;;;;;;3.38;2.75;;;;;;;11.35;66.95;94305.16;4970972;28;20106;-73
2021/11/01 16:23:38;;;;;;;4.10;3.70;;;;;;;11.76;65.37;94300.81;4971409;28;20122;-72
2021/11/01 16:28:45;;;;;;;4.05;3.15;;;;;;;11.42;66.69;94311.53;4972707;28;20129;-75
2021/11/01 16:34:21;;;;;;;4.53;4.13;;;;;;;12.09;65.27;94312.22;4947650;28;20117;-76
2021/11/01 16:39:21;;;;;;;4.03;3.63;;;;;;;12.65;64.65;94319.63;4975092;28;20045;-75
2021/11/01 16:41:48;;;;;;;4.32;3.92;;;;;;;13.11;64.75;94318.28;4984220;28;20023;-74
2021/11/01 16:46:47;;;;;;;3.53;3.22;;;;;;;12.80;62.25;94313.59;4974732;28;20066;-73
2021/11/01 16:49:13;;;;;;;3.80;3.42;;;;;;;12.55;64.27;94320.09;4973796;28;20038;-72
2021/11/01 16:51:40;;;;;;;3.03;2.72;;;;;;;12.47;63.95;94327.84;4973961;28;20030;-79
2021/11/01 16:54:08;;;;;;;3.45;2.55;;;;;;;12.34;63.73;94315.66;4974526;28;20045;-79
2021/11/01 16:57:16;;;;;;;3.00;2.78;;;;;;;11.77;65.30;94335.13;4978516;28;20416;-80
2021/11/01 17:02:37;;;;;;;3.78;2.53;;;;;;;12.29;64.35;94331.09;4973831;28;20049;-72
2021/11/01 17:05:10;;;;;;;5.28;3.00;;;;;;;12.23;63.71;94331.31;4971001;28;20038;-70
2021/11/01 17:26:20;;;;;;;3.35;2.25;;;;;;;12.60;65.30;94333.97;4978772;28;20074;-68
2021/11/01 17:28:54;;;;;;;2.60;1.70;;;;;;;12.34;62.64;94331.66;4981592;28;20035;-69
2021/11/01 18:40:33;;;;;;;2.47;2.28;;;;;;;13.76;62.82;94315.41;4968243;28;20042;-75
2021/11/01 18:46:15;;;;;;;2.92;2.00;;;;;;;13.81;62.40;94325.06;4914535;29;20044;-80
2021/11/01 18:51:32;;;;;;;2.40;2.20;;;;;;;13.88;62.40;94326.03;4954263;29;20127;-82
2021/11/01 18:54:19;;;;;;;3.35;2.50;;;;;;;13.89;62.50;94322.25;4954679;28;20074;-78
2021/11/01 18:56:47;;;;;;;2.92;1.92;;;;;;;13.95;62.63;94315.50;4958068;28;20043;-84
2021/11/01 18:59:13;;;;;;;2.70;2.10;;;;;;;13.97;62.55;94315.97;4972974;28;20088;-84
2021/11/01 19:01:42;;;;;;;3.35;2.45;;;;;;;13.91;62.24;94313.88;4993431;28;20504;-79
2021/11/01 19:04:16;;;;;;;2.83;2.63;;;;;;;13.99;62.51;94316.38;4993603;28;20034;-77
2021/11/01 19:06:59;;;;;;;2.17;1.90;;;;;;;14.01;62.33;94311.44;4993675;28;20046;-83
2021/11/01 19:13:08;;;;;;;4.03;1.90;;;;;;;14.04;62.56;94305.44;4940335;28;20027;-83
2021/11/01 21:25:49;;;;;;;6.15;5.28;;;;;;;13.92;61.21;94187.91;4965078;28;20041;-72
2021/11/01 21:28:15;;;;;;;5.43;4.18;;;;;;;13.95;61.45;94187.19;4979825;28;20054;-72
2021/11/01 21:30:41;;;;;;;3.42;3.13;;;;;;;13.97;61.86;94184.16;4984284;28;20054;-74
2021/11/01 21:33:07;;;;;;;3.50;3.20;;;;;;;13.83;61.38;94157.91;4991226;28;20019;-74
2021/11/01 21:35:41;;;;;;;3.97;3.60;;;;;;;13.93;61.39;94168.06;4992845;28;20049;-73
2021/11/01 21:38:06;;;;;;;4.88;4.38;;;;;;;13.95;61.61;94165.78;4993203;28;20492;-74
2021/11/01 21:40:32;;;;;;;4.63;4.22;;;;;;;13.95;61.75;94163.13;4989208;28;20030;-73
2021/11/01 21:42:57;;;;;;;3.83;3.47;;;;;;;13.94;61.29;94147.44;4965997;28;20034;-74
2021/11/01 21:45:23;;;;;;;4.47;4.07;;;;;;;13.92;61.29;94147.00;4982650;28;20121;-73
2021/11/01 21:47:48;;;;;;;4.85;4.35;;;;;;;13.99;61.25;94155.97;4992331;28;20041;-74
2021/11/01 21:50:15;;;;;;;4.55;4.13;;;;;;;13.91;60.94;94150.78;4992060;28;20026;-74
2021/11/01 21:52:44;;;;;;;4.13;3.78;;;;;;;13.96;61.34;94167.34;4994180;28;20109;-86
2021/11/01 21:55:09;;;;;;;3.60;3.30;;;;;;;14.02;61.28;94165.97;5010251;28;20431;-86
2021/11/01 22:40:56;;;;;;;3.33;2.53;;;;;;;14.14;60.97;94134.88;4977000;28;20042;-66
2021/11/01 22:47:19;;;;;;;2.05;1.85;;;;;;;14.11;60.96;94124.88;4983318;28;20038;-66
2021/11/01 22:57:12;;;;;;;2.13;1.88;;;;;;;14.10;60.88;94107.28;4986904;28;20507;-66
2021/11/01 22:59:38;;;;;;;1.73;1.63;;;;;;;14.09;60.40;94109.19;4983667;28;20034;-66
2021/11/01 23:02:05;;;;;;;1.60;1.50;;;;;;;14.17;60.49;94126.13;4986033;28;20130;-64
2021/11/01 23:31:27;;;;;;;1.27;1.17;;;;;;;14.13;60.35;94111.94;4984915;28;20084;-65
2021/11/01 23:32:03;;;;;;;0.93;0.93;;;;;;;14.14;60.54;94102.78;4985858;28;20495;-65
2021/11/01 23:34:29;;;;;;;0.88;0.80;;;;;;;14.19;60.48;94097.16;4990032;28;20026;-64
2021/11/01 23:36:56;;;;;;;0.85;0.80;;;;;;;14.18;60.28;94098.28;4990397;28;20729;-65
2021/11/01 23:39:22;;;;;;;0.32;0.32;;;;;;;13.73;59.40;94104.97;4990511;28;20379;-65
2021/11/01 23:41:48;;;;;;;1.38;0.68;;;;;;;13.87;60.20;94096.47;4986769;28;20112;-65
2021/11/01 23:44:15;;;;;;;0.60;0.60;;;;;;;13.96;59.92;94094.38;4983303;28;20027;-65
2021/11/01 23:46:41;;;;;;;0.50;0.50;;;;;;;14.04;60.17;94110.22;4983614;28;20026;-65
2021/11/01 23:49:06;;;;;;;0.40;0.40;;;;;;;13.98;60.05;94106.28;4990180;28;20044;-65
2021/11/01 23:51:35;;;;;;;0.50;0.45;;;;;;;14.01;60.70;94110.16;4990051;28;20455;-65
2021/11/01 23:56:37;;;;;;;1.20;0.70;;;;;;;13.99;60.54;94091.78;4990133;28;20049;-64
2021/11/01 23:59:03;;;;;;;1.65;0.60;;;;;;;14.02;60.40;94084.97;4981885;28;20476;-65
